Time;durP1;ratioP1;P1;durP2;ratioP2;P2;SDS_P1;SDS_P2;PMS_P1;PMS_P2;Temp;Humidity;BMP_temperature;BMP_pressure;BME280_temperature;BME280_humidity;BME280_pressure;Samples;Min_cycle;Max_cycle;Signal;HPM_P1;HPM_P2
2021/08/16 00:01:44;;;;;;;6.97;4.50;;;19.70;97.00;;;;;;5068234;28;20028;-48
2021/08/16 00:04:10;;;;;;;10.50;5.07;;;19.40;99.90;;;;;;5069517;28;20025;-46
2021/08/16 00:06:35;;;;;;;6.15;4.03;;;19.20;99.90;;;;;;5068940;28;20028;-47
2021/08/16 00:09:01;;;;;;;9.98;5.93;;;19.00;99.90;;;;;;5069462;28;20099;-49
2021/08/16 00:11:26;;;;;;;10.80;5.13;;;18.80;99.90;;;;;;5069366;28;20028;-47
2021/08/16 00:13:52;;;;;;;8.68;4.97;;;18.60;99.90;;;;;;5069260;28;20036;-48
2021/08/16 00:16:17;;;;;;;11.13;5.85;;;18.40;99.90;;;;;;5068447;28;20032;-47
2021/08/16 00:18:47;;;;;;;12.32;5.95;;;18.30;99.90;;;;;;5067751;28;20089;-47
2021/08/16 00:21:13;;;;;;;12.03;5.57;;;18.30;99.90;;;;;;5069177;28;20020;-49
2021/08/16 00:23:39;;;;;;;7.72;5.20;;;18.20;99.90;;;;;;5069343;28;20383;-47
2021/08/16 00:26:04;;;;;;;12.65;5.85;;;18.10;99.90;;;;;;5068467;28;20267;-48
2021/08/16 00:28:30;;;;;;;10.60;6.18;;;18.10;99.90;;;;;;5067988;28;20024;-47
2021/08/16 00:30:55;;;;;;;11.82;6.35;;;18.00;99.90;;;;;;5069155;28;20028;-47
2021/08/16 00:33:21;;;;;;;12.43;6.18;;;17.90;99.90;;;;;;5069452;28;20077;-50
2021/08/16 00:35:47;;;;;;;9.45;5.53;;;17.80;99.90;;;;;;5068905;28;20477;-46
2021/08/16 00:38:12;;;;;;;10.10;6.25;;;17.80;99.90;;;;;;5068176;28;20040;-47
2021/08/16 00:40:38;;;;;;;9.75;5.68;;;17.80;99.90;;;;;;5068773;28;20028;-47
2021/08/16 00:43:03;;;;;;;8.35;5.45;;;17.80;99.90;;;;;;5067461;28;20115;-48
2021/08/16 00:45:29;;;;;;;9.32;5.55;;;17.70;99.90;;;;;;5068594;28;20123;-47
2021/08/16 00:47:55;;;;;;;12.45;6.68;;;17.70;99.90;;;;;;5068150;28;20036;-47
2021/08/16 00:50:20;;;;;;;10.82;6.05;;;17.70;99.90;;;;;;5068631;28;20406;-47
2021/08/16 00:52:46;;;;;;;12.00;6.55;;;17.80;99.90;;;;;;5068763;28;20087;-48
2021/08/16 00:55:13;;;;;;;10.40;6.10;;;17.80;99.90;;;;;;5069142;28;20394;-47
2021/08/16 00:57:40;;;;;;;15.20;7.47;;;17.90;99.90;;;;;;5068459;28;20039;-47
2021/08/16 01:00:08;;;;;;;16.42;7.13;;;17.90;99.90;;;;;;5068744;28;20332;-47
2021/08/16 01:02:34;;;;;;;11.65;6.47;;;17.90;99.90;;;;;;5068466;28;20086;-48
2021/08/16 01:05:05;;;;;;;11.48;6.60;;;17.90;99.90;;;;;;5068703;28;20032;-47
2021/08/16 01:07:34;;;;;;;;;;;17.90;99.90;;;;;;5067002;28;20031;-47
2021/08/16 01:10:02;;;;;;;10.05;6.20;;;17.90;99.90;;;;;;5068679;28;20366;-47
2021/08/16 01:12:30;;;;;;;7.88;5.40;;;17.80;99.90;;;;;;5068330;28;20032;-47
2021/08/16 01:14:56;;;;;;;8.70;5.45;;;17.80;99.90;;;;;;5069072;28;20025;-47
2021/08/16 01:17:21;;;;;;;14.27;5.57;;;17.80;99.90;;;;;;5068180;28;20055;-47
2021/08/16 01:19:47;;;;;;;8.07;5.30;;;17.70;99.90;;;;;;5068682;28;20097;-46
2021/08/16 01:22:13;;;;;;;8.00;5.57;;;17.80;99.90;;;;;;5068553;28;20025;-47
2021/08/16 01:24:40;;;;;;;8.32;4.90;;;17.80;99.90;;;;;;5068399;28;20036;-47
2021/08/16 01:27:08;;;;;;;10.45;5.70;;;17.80;99.90;;;;;;5067686;28;20289;-47
2021/08/16 01:29:34;;;;;;;8.02;5.32;;;17.70;99.90;;;;;;5068336;28;20107;-47
2021/08/16 01:32:00;;;;;;;14.35;6.30;;;17.70;99.90;;;;;;5068193;28;20143;-47
2021/08/16 01:34:26;;;;;;;9.85;5.78;;;17.60;99.90;;;;;;5068355;28;20505;-47
2021/08/16 01:36:51;;;;;;;12.27;6.07;;;17.60;99.90;;;;;;5067531;28;20017;-48
2021/08/16 01:39:17;;;;;;;8.77;5.72;;;17.60;99.90;;;;;;5068245;28;20025;-47
2021/08/16 01:41:43;;;;;;;10.25;5.72;;;17.50;99.90;;;;;;5068547;28;20033;-47
2021/08/16 01:44:14;;;;;;;8.68;5.53;;;17.50;99.90;;;;;;5066952;28;20394;-47
2021/08/16 01:46:41;;;;;;;8.88;5.88;;;17.40;99.90;;;;;;5067547;28;20539;-47
2021/08/16 01:49:08;;;;;;;9.88;5.65;;;17.40;99.90;;;;;;5068368;28;20049;-46
2021/08/16 01:51:34;;;;;;;8.75;4.93;;;17.40;99.90;;;;;;5067188;28;20024;-47
2021/08/16 01:53:59;;;;;;;7.70;5.50;;;17.30;99.90;;;;;;5068346;28;20059;-47
2021/08/16 01:56:25;;;;;;;9.00;5.75;;;17.30;99.90;;;;;;5066310;28;20040;-48
2021/08/16 01:58:50;;;;;;;9.88;5.32;;;17.30;99.90;;;;;;5068267;28;20490;-48
2021/08/16 02:01:16;;;;;;;10.40;6.88;;;17.20;99.90;;;;;;5068310;28;20032;-47
2021/08/16 02:03:41;;;;;;;11.10;6.10;;;17.20;99.90;;;;;;5068189;28;20394;-47
2021/08/16 02:06:07;;;;;;;9.60;5.80;;;17.20;99.90;;;;;;5067512;28;20102;-46
2021/08/16 02:08:32;;;;;;;9.43;6.18;;;17.20;99.90;;;;;;5068611;28;20048;-46
2021/08/16 02:10:58;;;;;;;8.57;5.70;;;17.20;99.90;;;;;;5068128;28;20049;-48
2021/08/16 02:13:23;;;;;;;10.68;6.50;;;17.20;99.90;;;;;;5068171;28;20028;-47
2021/08/16 02:15:49;;;;;;;8.15;5.57;;;17.20;99.90;;;;;;5067985;28;20039;-47
2021/08/16 02:18:14;;;;;;;10.15;6.55;;;17.10;99.90;;;;;;5070691;28;20067;-46
2021/08/16 02:20:40;;;;;;;12.35;6.07;;;17.10;99.90;;;;;;5071645;28;20028;-48
2021/08/16 02:23:06;;;;;;;10.57;6.57;;;17.10;99.90;;;;;;5071363;28;20607;-46
2021/08/16 02:25:32;;;;;;;12.73;6.43;;;17.10;99.90;;;;;;5069924;28;20033;-47
2021/08/16 02:27:57;;;;;;;13.43;7.15;;;17.00;99.90;;;;;;5070592;28;20035;-46
2021/08/16 02:30:23;;;;;;;14.93;6.97;;;17.00;99.90;;;;;;5069812;28;20032;-49
2021/08/16 02:32:49;;;;;;;9.70;6.93;;;17.00;99.90;;;;;;5071295;28;20027;-46
2021/08/16 02:35:14;;;;;;;12.80;7.03;;;16.90;99.90;;;;;;5071241;28;20478;-46
2021/08/16 02:37:40;;;;;;;9.27;6.55;;;16.90;99.90;;;;;;5070412;28;20098;-46
2021/08/16 02:40:07;;;;;;;10.52;6.68;;;16.90;99.90;;;;;;5071033;28;20025;-48
2021/08/16 02:42:32;;;;;;;12.60;6.55;;;17.00;99.90;;;;;;5070916;28;20119;-49
2021/08/16 02:44:58;;;;;;;10.27;6.82;;;17.00;99.90;;;;;;5071105;28;20484;-46
2021/08/16 02:47:24;;;;;;;11.30;6.90;;;16.90;99.90;;;;;;5070173;28;20112;-46
2021/08/16 02:49:49;;;;;;;12.82;6.38;;;17.00;99.90;;;;;;5069490;28;20040;-47
2021/08/16 02:52:17;;;;;;;10.10;6.35;;;16.90;99.90;;;;;;5071232;28;20669;-47
2021/08/16 02:54:44;;;;;;;11.75;7.72;;;17.00;99.90;;;;;;5069366;28;20029;-46
2021/08/16 02:57:10;;;;;;;11.05;6.90;;;16.90;99.90;;;;;;5070103;28;20039;-46
2021/08/16 02:59:35;;;;;;;13.23;7.65;;;16.90;99.90;;;;;;5070969;28;20024;-46
2021/08/16 03:02:01;;;;;;;14.10;7.35;;;16.90;99.90;;;;;;5070898;28;20028;-46
2021/08/16 03:04:26;;;;;;;11.00;7.10;;;16.90;99.90;;;;;;5069973;28;20024;-46
2021/08/16 03:06:52;;;;;;;16.40;7.53;;;16.90;99.90;;;;;;5060292;28;20517;-46
2021/08/16 03:09:17;;;;;;;11.95;7.60;;;16.90;99.90;;;;;;5059165;28;20025;-46
2021/08/16 03:11:42;;;;;;;19.70;8.57;;;16.90;99.90;;;;;;5058192;28;20020;-47
2021/08/16 03:14:08;;;;;;;13.43;7.97;;;16.90;99.90;;;;;;5056550;28;20057;-46
2021/08/16 03:16:34;;;;;;;15.35;8.30;;;16.80;99.90;;;;;;5060215;28;20032;-46
2021/08/16 03:18:59;;;;;;;10.98;6.75;;;16.90;99.90;;;;;;5060437;28;20106;-48
2021/08/16 03:21:25;;;;;;;14.45;8.35;;;16.80;99.90;;;;;;5058446;28;20486;-47
2021/08/16 03:23:50;;;;;;;10.70;7.10;;;16.80;99.90;;;;;;5060392;28;20036;-46
2021/08/16 03:26:16;;;;;;;13.48;8.45;;;16.80;99.90;;;;;;5058974;28;20036;-47
2021/08/16 03:28:42;;;;;;;18.67;9.40;;;16.80;99.90;;;;;;5056247;28;20024;-47
2021/08/16 03:31:07;;;;;;;18.75;8.70;;;16.90;99.90;;;;;;5060502;28;20055;-48
2021/08/16 03:33:33;;;;;;;15.52;8.35;;;16.90;99.90;;;;;;5058044;28;20498;-47
2021/08/16 03:35:58;;;;;;;15.10;8.50;;;16.90;99.90;;;;;;5056166;28;20032;-46
2021/08/16 03:38:24;;;;;;;14.70;7.22;;;16.90;99.90;;;;;;5059741;28;20078;-47
2021/08/16 03:40:50;;;;;;;13.50;8.38;;;16.90;99.90;;;;;;5057499;28;20079;-47
2021/08/16 03:43:15;;;;;;;13.15;8.18;;;16.90;99.90;;;;;;5058515;28;20896;-47
2021/08/16 03:45:41;;;;;;;16.65;8.13;;;16.90;99.90;;;;;;5058243;28;20394;-47
2021/08/16 03:48:06;;;;;;;18.55;8.93;;;17.00;99.90;;;;;;5058821;28;20021;-47
2021/08/16 03:50:32;;;;;;;16.27;8.25;;;17.00;99.90;;;;;;5059767;28;20365;-49
2021/08/16 03:52:57;;;;;;;9.48;7.43;;;16.90;99.90;;;;;;5073890;28;20434;-47
2021/08/16 03:55:23;;;;;;;17.55;9.38;;;17.00;99.90;;;;;;5070592;28;20017;-47
2021/08/16 03:57:48;;;;;;;12.85;8.20;;;16.90;99.90;;;;;;5067375;28;20221;-47
2021/08/16 04:00:14;;;;;;;13.77;8.60;;;16.90;99.90;;;;;;5069319;28;20032;-49
2021/08/16 04:02:42;;;;;;;14.27;8.27;;;16.90;99.90;;;;;;5069275;28;20445;-47
2021/08/16 04:05:09;;;;;;;19.92;8.38;;;17.00;99.90;;;;;;5069830;28;20021;-47
2021/08/16 04:07:34;;;;;;;19.17;9.20;;;17.00;99.90;;;;;;5068486;28;20025;-50
2021/08/16 04:10:00;;;;;;;13.18;7.75;;;17.00;99.90;;;;;;5059830;28;20027;-47
2021/08/16 04:12:25;;;;;;;14.25;8.00;;;17.00;99.90;;;;;;5058686;28;20029;-47
2021/08/16 04:14:51;;;;;;;12.95;7.82;;;17.00;99.90;;;;;;5058872;28;20028;-48
2021/08/16 04:17:16;;;;;;;13.38;8.18;;;17.00;99.90;;;;;;5058135;28;20020;-46
2021/08/16 04:19:42;;;;;;;14.77;8.32;;;17.00;99.90;;;;;;5056913;28;20076;-47
2021/08/16 04:22:07;;;;;;;15.85;7.93;;;17.00;99.90;;;;;;5061112;28;20017;-46
2021/08/16 04:24:33;;;;;;;17.27;8.50;;;17.00;99.90;;;;;;5069314;28;20342;-47
2021/08/16 04:26:58;;;;;;;13.10;8.35;;;17.10;99.90;;;;;;5058119;28;20025;-47
2021/08/16 04:29:25;;;;;;;15.05;7.68;;;17.10;99.90;;;;;;5058277;28;20467;-47
2021/08/16 04:31:50;;;;;;;19.40;8.95;;;17.10;99.90;;;;;;5058499;28;20474;-46
2021/08/16 04:34:16;;;;;;;16.85;7.70;;;17.10;99.90;;;;;;5059579;28;20033;-47
2021/08/16 04:36:41;;;;;;;18.65;8.30;;;17.20;99.90;;;;;;5057434;28;20037;-47
2021/08/16 04:39:07;;;;;;;10.80;6.40;;;17.10;99.90;;;;;;5061375;28;20612;-46
2021/08/16 04:41:32;;;;;;;12.95;7.15;;;17.10;99.90;;;;;;5067534;28;20033;-46
2021/08/16 04:43:58;;;;;;;11.32;7.05;;;17.10;99.90;;;;;;5068813;28;20029;-46
2021/08/16 04:46:23;;;;;;;13.35;7.78;;;17.10;99.90;;;;;;5077218;28;20508;-47
2021/08/16 04:48:49;;;;;;;13.20;7.45;;;17.00;99.90;;;;;;5088919;28;20032;-46
2021/08/16 04:51:14;;;;;;;12.20;7.00;;;17.10;99.90;;;;;;5088800;28;20044;-47
2021/08/16 04:53:40;;;;;;;14.70;7.57;;;17.00;99.90;;;;;;5087446;28;20016;-48
2021/08/16 04:56:05;;;;;;;14.43;7.50;;;17.00;99.90;;;;;;5086979;28;20497;-47
2021/08/16 04:58:31;;;;;;;13.88;7.00;;;17.00;99.90;;;;;;5087456;28;20024;-48
2021/08/16 05:00:57;;;;;;;9.70;7.28;;;16.90;99.90;;;;;;5088704;28;20019;-46
2021/08/16 05:03:22;;;;;;;13.85;7.65;;;16.90;99.90;;;;;;5063592;28;20483;-47
2021/08/16 05:05:52;;;;;;;11.18;7.68;;;16.90;99.90;;;;;;5049068;28;20115;-47
2021/08/16 05:08:17;;;;;;;13.15;7.82;;;16.80;99.90;;;;;;5049426;28;20025;-47
2021/08/16 05:10:45;;;;;;;13.90;8.32;;;16.90;99.90;;;;;;5055368;28;20035;-47
2021/08/16 05:13:11;;;;;;;8.32;6.93;;;16.90;99.90;;;;;;5050032;28;20021;-47
2021/08/16 05:15:36;;;;;;;14.05;7.85;;;16.90;99.90;;;;;;5049991;28;20543;-48
2021/08/16 05:18:03;;;;;;;12.88;8.25;;;16.90;99.90;;;;;;5049178;28;20108;-48
2021/08/16 05:20:29;;;;;;;13.63;8.60;;;16.90;99.90;;;;;;5049776;28;20116;-47
2021/08/16 05:22:55;;;;;;;17.50;9.10;;;16.90;99.90;;;;;;5048753;28;20041;-47
2021/08/16 05:25:21;;;;;;;13.90;9.73;;;16.90;99.90;;;;;;5049801;28;20025;-47
2021/08/16 05:27:47;;;;;;;17.58;9.43;;;16.80;99.90;;;;;;5052032;28;20035;-47
2021/08/16 05:30:14;;;;;;;15.32;9.73;;;16.90;99.90;;;;;;5054342;28;20036;-48
2021/08/16 05:32:39;;;;;;;17.02;10.45;;;16.90;99.90;;;;;;5058061;28;20081;-47
2021/08/16 05:35:06;;;;;;;13.98;9.73;;;16.90;99.90;;;;;;5059992;28;20333;-47
2021/08/16 05:37:32;;;;;;;12.07;8.80;;;16.90;99.90;;;;;;5057687;28;20059;-51
2021/08/16 05:39:58;;;;;;;16.58;8.90;;;16.90;99.90;;;;;;5055864;28;20052;-48
2021/08/16 05:42:23;;;;;;;14.02;8.65;;;17.00;99.90;;;;;;5059116;28;20021;-47
2021/08/16 05:44:49;;;;;;;16.27;9.10;;;17.10;99.90;;;;;;5058052;28;20041;-48
2021/08/16 05:47:14;;;;;;;15.40;9.23;;;17.10;99.90;;;;;;5069016;28;20065;-48
2021/08/16 05:49:40;;;;;;;16.05;9.63;;;17.30;99.90;;;;;;5069711;28;20382;-47
2021/08/16 05:52:06;;;;;;;14.60;9.18;;;17.30;99.90;;;;;;5069921;28;20470;-47
2021/08/16 05:54:31;;;;;;;14.65;9.13;;;17.40;99.90;;;;;;5068758;28;20471;-47
2021/08/16 05:56:57;;;;;;;12.88;7.68;;;17.40;99.90;;;;;;5071121;28;20080;-47
2021/08/16 05:59:22;;;;;;;14.20;8.13;;;17.50;99.90;;;;;;5071566;28;20177;-47
2021/08/16 06:01:48;;;;;;;14.73;8.20;;;17.60;99.90;;;;;;5068573;28;20511;-47
2021/08/16 06:04:13;;;;;;;13.43;7.22;;;17.70;99.90;;;;;;5062905;28;20028;-47
2021/08/16 06:06:39;;;;;;;12.23;7.50;;;17.70;99.90;;;;;;5059787;28;20512;-47
2021/08/16 06:09:05;;;;;;;14.30;7.15;;;17.80;99.90;;;;;;5060087;28;20017;-48
2021/08/16 06:11:31;;;;;;;10.35;7.53;;;17.90;99.90;;;;;;5061763;28;20029;-50
2021/08/16 06:13:57;;;;;;;8.43;7.32;;;18.00;99.90;;;;;;5059184;28;20028;-47
2021/08/16 06:16:23;;;;;;;15.35;7.70;;;17.90;99.90;;;;;;5064483;28;20082;-47
2021/08/16 06:18:51;;;;;;;16.77;8.25;;;17.90;99.90;;;;;;5060641;28;20049;-47
2021/08/16 06:21:17;;;;;;;11.25;7.18;;;17.90;99.90;;;;;;5065320;28;20432;-47
2021/08/16 06:23:42;;;;;;;9.60;7.20;;;18.00;99.90;;;;;;5071172;28;20013;-47
2021/08/16 06:26:08;;;;;;;13.45;8.88;;;18.10;99.90;;;;;;5070330;28;20496;-48
2021/08/16 06:28:34;;;;;;;11.93;7.50;;;18.00;99.90;;;;;;5071330;28;20029;-49
2021/08/16 06:30:59;;;;;;;13.68;8.75;;;18.00;99.90;;;;;;5070949;28;20082;-46
2021/08/16 06:33:25;;;;;;;14.23;8.15;;;17.80;99.90;;;;;;5070746;28;20112;-48
2021/08/16 06:35:52;;;;;;;11.95;7.47;;;17.90;99.90;;;;;;5070904;28;20035;-47
2021/08/16 06:38:26;;;;;;;13.35;7.47;;;17.90;99.90;;;;;;5070227;28;20574;-46
2021/08/16 06:40:57;;;;;;;12.68;8.65;;;17.90;99.90;;;;;;5070712;28;20028;-47
2021/08/16 06:43:25;;;;;;;14.30;8.70;;;18.00;99.90;;;;;;5070636;28;20028;-47
2021/08/16 06:45:51;;;;;;;11.57;8.70;;;18.10;99.90;;;;;;5070644;28;20028;-49
2021/08/16 06:48:17;;;;;;;11.98;8.20;;;18.10;99.90;;;;;;5068542;28;20029;-47
2021/08/16 06:50:43;;;;;;;11.30;8.48;;;18.20;99.90;;;;;;5070812;28;20385;-47
2021/08/16 06:53:13;;;;;;;11.10;8.60;;;18.30;99.90;;;;;;5070506;28;20016;-46
2021/08/16 06:55:39;;;;;;;17.47;9.97;;;18.30;99.90;;;;;;5070442;28;20048;-46
2021/08/16 06:58:05;;;;;;;12.27;10.07;;;18.30;99.90;;;;;;5068390;28;20493;-47
2021/08/16 07:00:30;;;;;;;16.63;10.10;;;18.30;99.90;;;;;;5063951;28;20040;-47
2021/08/16 07:02:58;;;;;;;15.40;10.50;;;18.20;99.90;;;;;;5050066;28;20036;-48
2021/08/16 07:05:23;;;;;;;16.73;10.80;;;18.30;99.90;;;;;;5050175;28;20033;-47
2021/08/16 07:07:51;;;;;;;17.50;11.30;;;18.30;99.90;;;;;;5053057;28;20043;-47
2021/08/16 07:10:17;;;;;;;17.48;10.88;;;18.30;99.90;;;;;;5062640;28;20038;-47
2021/08/16 07:12:43;;;;;;;14.50;10.25;;;18.40;99.90;;;;;;5060499;28;20033;-47
2021/08/16 07:15:09;;;;;;;13.73;9.63;;;18.50;99.90;;;;;;5067199;28;20029;-47
2021/08/16 07:17:34;;;;;;;13.57;9.88;;;18.70;99.90;;;;;;5060507;28;20036;-47
2021/08/16 07:20:00;;;;;;;16.30;9.30;;;18.90;99.90;;;;;;5060447;28;20394;-47
2021/08/16 07:22:25;;;;;;;12.63;9.45;;;19.00;99.90;;;;;;5062347;28;20025;-46
2021/08/16 07:24:51;;;;;;;16.83;8.90;;;19.20;99.90;;;;;;5060729;28;20032;-47
2021/08/16 07:27:16;;;;;;;13.05;8.88;;;19.30;99.90;;;;;;5058892;28;20032;-47
2021/08/16 07:29:42;;;;;;;15.13;8.93;;;19.20;99.90;;;;;;5059823;28;20672;-47
2021/08/16 07:32:07;;;;;;;13.95;8.52;;;19.10;99.90;;;;;;5058871;28;20108;-47
2021/08/16 07:34:34;;;;;;;14.07;8.32;;;19.10;99.90;;;;;;5059605;28;20395;-47
2021/08/16 07:37:00;;;;;;;12.23;8.18;;;19.30;99.90;;;;;;5058084;28;20021;-47
2021/08/16 07:39:25;;;;;;;14.13;8.13;;;19.40;99.90;;;;;;5060173;28;20027;-47
2021/08/16 07:41:51;;;;;;;13.05;7.10;;;19.60;99.90;;;;;;5055444;28;20457;-47
2021/08/16 07:44:17;;;;;;;11.48;7.35;;;19.60;99.90;;;;;;5056303;28;20642;-47
2021/08/16 07:46:43;;;;;;;10.98;7.32;;;19.70;99.90;;;;;;5056031;28;20032;-47
2021/08/16 07:49:08;;;;;;;13.18;6.80;;;19.80;99.90;;;;;;5060263;28;20100;-48
2021/08/16 07:51:34;;;;;;;8.70;7.20;;;19.80;99.90;;;;;;5057821;28;20112;-47
2021/08/16 07:54:00;;;;;;;11.30;6.80;;;19.60;99.90;;;;;;5049933;28;20087;-47
2021/08/16 07:56:26;;;;;;;9.02;6.72;;;19.50;99.90;;;;;;5048436;28;20104;-47
2021/08/16 07:58:51;;;;;;;10.07;6.65;;;19.40;99.90;;;;;;5049005;28;20044;-47
2021/08/16 08:01:17;;;;;;;8.52;6.63;;;19.40;99.90;;;;;;5053989;28;20016;-47
2021/08/16 08:03:43;;;;;;;10.25;7.80;;;19.30;99.90;;;;;;5059729;28;20059;-47
2021/08/16 08:06:09;;;;;;;12.70;6.85;;;19.40;99.90;;;;;;5061024;28;20044;-46
2021/08/16 08:08:34;;;;;;;12.93;7.55;;;19.50;99.90;;;;;;5054004;28;20024;-47
2021/08/16 08:11:00;;;;;;;13.55;7.07;;;19.70;99.90;;;;;;5061857;28;20014;-47
2021/08/16 08:13:25;;;;;;;14.18;7.80;;;19.90;99.90;;;;;;5050392;28;20037;-47
2021/08/16 08:15:51;;;;;;;10.52;6.88;;;20.00;99.90;;;;;;5061947;28;20021;-47
2021/08/16 08:18:19;;;;;;;20.17;7.72;;;20.10;99.90;;;;;;5057459;28;20024;-47
2021/08/16 08:20:45;;;;;;;10.70;7.28;;;20.40;99.90;;;;;;5059093;28;20024;-46
2021/08/16 08:23:10;;;;;;;13.20;6.65;;;20.40;99.90;;;;;;5058973;28;20389;-47
2021/08/16 08:25:38;;;;;;;11.18;6.95;;;20.30;99.90;;;;;;5057678;28;20155;-47
2021/08/16 08:28:05;;;;;;;14.38;7.38;;;20.40;99.90;;;;;;5033260;28;20053;-47
2021/08/16 08:30:30;;;;;;;12.02;7.78;;;20.40;99.90;;;;;;5048446;28;20506;-47
2021/08/16 08:32:56;;;;;;;12.23;7.13;;;20.40;99.90;;;;;;5048795;28;20100;-48
2021/08/16 08:35:23;;;;;;;12.25;7.45;;;20.60;99.90;;;;;;5051102;28;20498;-47
2021/08/16 08:37:50;;;;;;;10.02;6.63;;;20.90;99.90;;;;;;5063940;28;20109;-48
2021/08/16 08:40:16;;;;;;;12.55;6.70;;;21.00;99.90;;;;;;5067582;28;20521;-47
2021/08/16 08:42:52;;;;;;;14.13;7.05;;;21.10;99.90;;;;;;5068018;28;20162;-46
2021/08/16 08:45:22;;;;;;;14.30;7.03;;;21.10;99.90;;;;;;5058236;28;20036;-47
2021/08/16 08:47:48;;;;;;;15.32;7.05;;;20.90;99.90;;;;;;5065985;28;20481;-47
2021/08/16 08:50:15;;;;;;;13.43;7.88;;;21.00;99.90;;;;;;5069027;28;20032;-47
2021/08/16 08:52:42;;;;;;;12.90;7.25;;;21.10;99.90;;;;;;5068118;28;20589;-47
2021/08/16 08:55:08;;;;;;;12.57;7.03;;;21.40;99.90;;;;;;5067950;28;20038;-47
2021/08/16 08:57:37;;;;;;;16.30;7.38;;;21.30;99.90;;;;;;5067779;28;20607;-47
2021/08/16 09:00:04;;;;;;;12.82;6.72;;;21.10;99.90;;;;;;5067827;28;20028;-47
2021/08/16 09:02:29;;;;;;;15.65;7.47;;;20.90;99.90;;;;;;5066459;28;20474;-47
2021/08/16 09:04:56;;;;;;;11.52;7.10;;;20.70;99.90;;;;;;5068202;28;20108;-47
2021/08/16 09:07:35;;;;;;;10.18;6.65;;;20.50;99.90;;;;;;5067652;28;20021;-48
2021/08/16 09:10:04;;;;;;;12.77;6.30;;;20.20;99.90;;;;;;5068417;28;20036;-47
2021/08/16 09:12:35;;;;;;;14.38;6.25;;;20.00;99.90;;;;;;5067291;28;20044;-46
2021/08/16 09:15:03;;;;;;;11.93;6.68;;;19.90;99.90;;;;;;5068281;28;20020;-47
2021/08/16 09:17:30;;;;;;;11.88;7.38;;;19.90;99.90;;;;;;5066044;28;20028;-47
2021/08/16 09:19:56;;;;;;;9.80;6.53;;;19.70;99.90;;;;;;5067884;28;20020;-46
2021/08/16 09:22:35;;;;;;;15.73;6.82;;;19.60;99.90;;;;;;5068296;28;20165;-46
2021/08/16 09:25:08;;;;;;;10.68;6.35;;;19.60;99.90;;;;;;5062045;28;20247;-47
2021/08/16 09:27:42;;;;;;;17.75;6.72;;;19.50;99.90;;;;;;5051584;28;20028;-46
2021/08/16 09:30:07;;;;;;;14.50;7.45;;;19.60;99.90;;;;;;5052716;28;20068;-47
2021/08/16 09:32:34;;;;;;;12.13;6.57;;;19.60;99.90;;;;;;5052048;28;20044;-46
2021/08/16 09:35:08;;;;;;;12.90;6.53;;;19.70;99.90;;;;;;5052170;28;20036;-47
2021/08/16 09:37:35;;;;;;;11.75;6.30;;;20.00;99.90;;;;;;5051712;28;20445;-47
2021/08/16 09:40:18;;;;;;;10.93;5.20;;;20.20;99.90;;;;;;5052110;28;20388;-46
2021/08/16 09:42:53;;;;;;;11.27;6.38;;;20.60;99.90;;;;;;5060101;28;20105;-46
2021/08/16 09:45:31;;;;;;;15.52;6.20;;;20.90;99.90;;;;;;5061875;28;20543;-49
2021/08/16 09:47:58;;;;;;;13.45;5.97;;;21.00;99.90;;;;;;5063990;28;20220;-47
2021/08/16 09:50:44;;;;;;;10.50;6.43;;;20.80;99.90;;;;;;5062073;28;20021;-47
2021/08/16 09:53:11;;;;;;;16.92;6.43;;;20.60;99.90;;;;;;5062694;28;20021;-47
2021/08/16 09:55:41;;;;;;;13.00;5.85;;;20.60;99.90;;;;;;5061217;28;20050;-46
2021/08/16 09:58:13;;;;;;;13.63;6.65;;;20.50;99.90;;;;;;5062319;28;20093;-48
2021/08/16 10:00:40;;;;;;;15.77;5.78;;;20.70;99.90;;;;;;5056089;28;20040;-47
2021/08/16 10:03:11;;;;;;;15.02;6.00;;;21.40;98.80;;;;;;5053332;28;20056;-48
2021/08/16 10:05:44;;;;;;;11.48;5.80;;;21.80;98.00;;;;;;5052969;28;20028;-50
2021/08/16 10:08:12;;;;;;;9.25;5.28;;;22.10;97.70;;;;;;5052494;28;20017;-47
2021/08/16 10:10:40;;;;;;;12.82;5.57;;;22.20;96.80;;;;;;5063913;28;20029;-47
2021/08/16 10:13:08;;;;;;;11.23;5.78;;;22.10;96.40;;;;;;5072140;28;20599;-47
2021/08/16 10:15:41;;;;;;;9.68;5.60;;;21.80;96.70;;;;;;5072519;28;20053;-48
2021/08/16 10:18:15;;;;;;;9.50;5.40;;;21.60;97.30;;;;;;5071682;28;20614;-47
2021/08/16 10:20:44;;;;;;;12.82;5.65;;;21.30;97.50;;;;;;5071228;28;20025;-47
2021/08/16 10:23:21;;;;;;;11.45;5.88;;;21.30;97.80;;;;;;5067408;28;20524;-48
2021/08/16 10:25:49;;;;;;;10.38;5.40;;;21.10;97.80;;;;;;5061785;28;20078;-47
2021/08/16 10:28:34;;;;;;;9.70;5.50;;;21.10;97.90;;;;;;5066294;28;20032;-47
2021/08/16 10:31:02;;;;;;;12.43;6.22;;;21.50;97.00;;;;;;5072375;28;21327;-47
2021/08/16 10:33:29;;;;;;;16.40;6.03;;;21.60;96.70;;;;;;5072388;28;20359;-46
2021/08/16 10:35:55;;;;;;;12.25;5.65;;;21.50;96.90;;;;;;5072178;28;20028;-47
2021/08/16 10:38:23;;;;;;;11.27;5.97;;;21.50;97.30;;;;;;5070852;28;20025;-47
2021/08/16 10:40:53;;;;;;;15.05;5.70;;;21.40;96.80;;;;;;5072099;28;20031;-49
2021/08/16 10:43:20;;;;;;;10.75;5.28;;;21.30;96.80;;;;;;5072134;28;20028;-48
2021/08/16 10:45:51;;;;;;;11.95;5.20;;;21.30;97.20;;;;;;5072231;28;20032;-49
2021/08/16 10:48:25;;;;;;;9.75;6.18;;;21.20;96.90;;;;;;5071706;28;20042;-47
2021/08/16 10:51:06;;;;;;;14.38;6.18;;;21.30;96.80;;;;;;5071974;28;20020;-47
2021/08/16 10:53:44;;;;;;;12.25;5.78;;;21.20;96.80;;;;;;5071752;28;20029;-46
2021/08/16 10:56:18;;;;;;;12.75;5.80;;;21.00;97.20;;;;;;5071286;28;20105;-47
2021/08/16 10:58:45;;;;;;;11.82;5.50;;;20.80;97.80;;;;;;5071820;28;20025;-47
2021/08/16 11:01:25;;;;;;;7.13;4.95;;;20.80;97.70;;;;;;5071993;28;20019;-47
2021/08/16 11:04:15;;;;;;;13.98;6.03;;;20.70;98.00;;;;;;5071972;28;20021;-47
2021/08/16 11:06:55;;;;;;;8.90;5.18;;;20.60;97.80;;;;;;5070539;28;20102;-47
2021/08/16 11:09:25;;;;;;;11.80;5.70;;;20.50;97.90;;;;;;5071740;28;20513;-47
2021/08/16 11:12:03;;;;;;;10.30;6.07;;;20.50;98.40;;;;;;5059068;28;20849;-47
2021/08/16 11:14:30;;;;;;;12.30;6.10;;;20.40;98.40;;;;;;5071571;28;20077;-47
2021/08/16 11:16:56;;;;;;;11.50;6.13;;;20.40;99.90;;;;;;5070884;28;20028;-48
2021/08/16 11:19:22;;;;;;;9.07;5.47;;;20.40;99.70;;;;;;5071519;28;20030;-47
2021/08/16 11:21:59;;;;;;;9.90;5.32;;;20.50;99.40;;;;;;5071599;28;20020;-47
2021/08/16 11:24:36;;;;;;;17.38;6.13;;;20.60;99.30;;;;;;5071109;28;20024;-48
2021/08/16 11:27:07;;;;;;;9.52;5.40;;;20.90;98.50;;;;;;5070306;28;20036;-48
2021/08/16 11:29:33;;;;;;;8.70;4.75;;;20.90;97.90;;;;;;5069745;28;20472;-47
2021/08/16 11:32:04;;;;;;;11.32;5.15;;;21.00;98.10;;;;;;5071149;28;20015;-47
2021/08/16 11:34:43;;;;;;;7.60;4.75;;;21.10;98.00;;;;;;5071078;28;20446;-47
2021/08/16 11:37:11;;;;;;;13.45;4.88;;;21.10;97.20;;;;;;5070101;28;20032;-47
2021/08/16 11:39:36;;;;;;;9.35;4.35;;;21.10;97.10;;;;;;5069916;28;20020;-46
2021/08/16 11:42:03;;;;;;;14.60;5.32;;;21.00;97.60;;;;;;5051095;28;20025;-46
2021/08/16 11:44:30;;;;;;;12.15;5.05;;;21.00;97.50;;;;;;5050768;28;20494;-47
2021/08/16 11:46:58;;;;;;;10.05;4.75;;;20.90;97.50;;;;;;5050105;28;20033;-46
2021/08/16 11:49:25;;;;;;;10.55;5.07;;;20.70;97.30;;;;;;5052389;28;20051;-46
2021/08/16 11:51:52;;;;;;;7.15;4.65;;;20.70;97.70;;;;;;5059607;28;20027;-47
2021/08/16 11:54:26;;;;;;;11.43;5.93;;;20.70;98.50;;;;;;5050970;28;20052;-46
2021/08/16 11:56:54;;;;;;;12.02;5.07;;;20.50;98.60;;;;;;5049876;28;20078;-46
2021/08/16 11:59:20;;;;;;;7.15;5.15;;;20.50;98.80;;;;;;5050633;28;20571;-46
2021/08/16 12:01:46;;;;;;;9.18;5.60;;;20.50;98.80;;;;;;5059419;28;20490;-46
2021/08/16 12:04:13;;;;;;;11.13;5.45;;;20.50;98.50;;;;;;5060995;28;20087;-47
2021/08/16 12:06:39;;;;;;;10.52;6.25;;;20.50;98.90;;;;;;5057199;28;20017;-46
2021/08/16 12:09:09;;;;;;;12.73;6.40;;;20.40;99.70;;;;;;5057833;28;20021;-47
2021/08/16 12:11:36;;;;;;;13.50;6.85;;;20.30;99.90;;;;;;5053378;28;20028;-47
2021/08/16 12:14:02;;;;;;;10.00;6.05;;;20.20;99.90;;;;;;5061506;28;20448;-52
2021/08/16 12:16:33;;;;;;;8.93;6.28;;;20.00;99.90;;;;;;5067682;28;20020;-46
2021/08/16 12:18:59;;;;;;;15.20;6.78;;;19.90;99.90;;;;;;5068519;28;20016;-47
2021/08/16 12:21:25;;;;;;;9.40;7.47;;;19.80;99.90;;;;;;5068639;28;20028;-49
2021/08/16 12:23:59;;;;;;;10.38;6.13;;;19.70;99.90;;;;;;5068593;28;20040;-46
2021/08/16 12:26:39;;;;;;;11.73;6.65;;;19.60;99.90;;;;;;5067930;28;20031;-49
2021/08/16 12:29:23;;;;;;;8.57;5.85;;;19.30;99.90;;;;;;5068566;28;20111;-46
2021/08/16 12:31:49;;;;;;;11.93;6.18;;;18.90;99.90;;;;;;5068141;28;20107;-46
2021/08/16 12:34:14;;;;;;;10.82;7.10;;;18.50;99.90;;;;;;5068568;28;20131;-49
2021/08/16 12:36:49;;;;;;;8.75;5.85;;;18.10;99.90;;;;;;5067780;28;20159;-50
2021/08/16 12:39:15;;;;;;;8.43;4.45;;;17.70;99.90;;;;;;5064663;28;20033;-47